グラスゴー の空港の天気 - METARとTAF

グラスゴー国際空港 ( EGPF / GLA ) - イギリス グラスゴー
飛行場実況気象(Metar)
観測時間01/24 11:50 GMT (01/24 11:50 UTC)
風向・風速西 4m/s
視程10km以上
天気現象
少しの雲 雲底高度 340m
全天の8割程度の雲 雲底高度 700m
全天の8割程度の雲 雲底高度 1010m
気温9℃
湿度87%
気圧1020hPa
METAREGPF 241150Z AUTO 26007KT 9999 FEW011 BKN023 BKN033 09/07 Q1020
過去の天気等 Google飛行場航空写真 Wunderground天気予報

過去48時間のMETAR

飛行場予報(TAF)
発表時間: 1/24 11:03 GMT (1/24 11:03 UTC)
予報対象時間: 24日12時 GMT ~ 25日12時 GMT
風向・風速南西 5m/s
視程10km以上
全天の4割程度の雲 雲底高度 370m
全天の8割程度の雲 雲底高度 610m
24日12時 GMT ~ 24日18時 GMT に 確率 30% で一時的に
全天の8割程度の雲 雲底高度 240m
24日18時 GMT ~ 24日24時 GMT に一時的に
視程4000m
天気現象雨霧雨 もや
全天の8割程度の雲 雲底高度 180m
24日18時 GMT ~ 24日23時 GMT に 確率 40% で一時的に
全天の8割程度の雲 雲底高度 120m
25日0時 GMT ~ 25日12時 GMT に 確率 30% で一時的に
全天の8割程度の雲 雲底高度 370m
TAF EGPF 241103Z 2412/2512 23009KT 9999 SCT012 BKN020
PROB30 TEMPO 2412/2418 BKN008
TEMPO 2418/2424 4000 RADZ BR BKN006
PROB40 TEMPO 2418/2423 BKN004
PROB30 TEMPO 2500/2512 BKN012